createdAt,value
2018-07-17T00:00:49.750Z,7.57
2018-07-17T00:03:17.980Z,9.00
2018-07-17T00:05:46.180Z,7.83
2018-07-17T00:08:14.372Z,8.60
2018-07-17T00:10:42.546Z,7.50
2018-07-17T00:13:10.753Z,9.43
2018-07-17T00:15:38.922Z,7.77
2018-07-17T00:18:07.068Z,6.83
2018-07-17T00:20:35.237Z,7.20
2018-07-17T00:23:03.404Z,6.70
2018-07-17T00:25:31.592Z,6.53
2018-07-17T00:27:59.772Z,7.63
2018-07-17T00:30:27.961Z,7.40
2018-07-17T00:32:56.131Z,6.50
2018-07-17T00:35:24.325Z,7.33
2018-07-17T00:37:52.512Z,8.03
2018-07-17T00:40:20.720Z,8.73
2018-07-17T00:42:48.905Z,7.57
2018-07-17T00:45:20.071Z,6.60
2018-07-17T00:47:48.268Z,6.63
2018-07-17T00:50:16.419Z,6.20
2018-07-17T00:52:44.561Z,6.57
2018-07-17T00:55:12.768Z,7.50
2018-07-17T00:57:40.932Z,7.00
2018-07-17T01:00:09.100Z,6.23
2018-07-17T01:02:42.591Z,7.17
2018-07-17T01:05:16.199Z,7.67
2018-07-17T01:07:49.901Z,8.17
2018-07-17T01:10:23.461Z,12.07
2018-07-17T01:12:50.928Z,8.63
2018-07-17T01:15:25.168Z,7.03
2018-07-17T01:17:53.335Z,6.07
2018-07-17T01:20:21.507Z,8.27
2018-07-17T01:22:49.648Z,7.20
2018-07-17T01:25:17.812Z,8.30
2018-07-17T01:27:45.952Z,14.27
2018-07-17T01:30:14.088Z,10.00
2018-07-17T01:32:42.221Z,10.67
2018-07-17T01:35:10.391Z,18.07
2018-07-17T01:37:38.543Z,9.27
2018-07-17T01:40:06.738Z,9.03
2018-07-17T01:42:34.859Z,8.27
2018-07-17T01:45:03.009Z,7.13
2018-07-17T01:47:31.161Z,8.63
2018-07-17T01:49:59.325Z,6.73
2018-07-17T01:52:27.459Z,7.40
2018-07-17T01:54:55.640Z,7.00
2018-07-17T01:57:23.802Z,8.20
2018-07-17T01:59:51.926Z,8.57
2018-07-17T02:02:20.181Z,8.13
2018-07-17T02:04:48.397Z,7.47
2018-07-17T02:07:16.521Z,7.60
2018-07-17T02:09:44.674Z,9.70
2018-07-17T02:12:12.821Z,12.87
2018-07-17T02:14:40.956Z,9.43
2018-07-17T02:17:09.314Z,11.23
2018-07-17T02:19:37.463Z,19.00
2018-07-17T02:22:05.399Z,10.63
2018-07-17T02:24:33.540Z,7.37
2018-07-17T02:27:01.693Z,7.47
2018-07-17T02:29:29.841Z,7.37
2018-07-17T02:31:58.004Z,6.70
2018-07-17T02:34:26.140Z,7.13
2018-07-17T02:36:54.277Z,8.30
2018-07-17T02:39:22.209Z,8.13
2018-07-17T02:41:50.370Z,8.33
2018-07-17T02:44:18.519Z,9.00
2018-07-17T02:46:46.702Z,9.83
2018-07-17T02:49:14.845Z,9.30
2018-07-17T02:51:42.792Z,9.37
2018-07-17T02:54:10.961Z,9.17
2018-07-17T02:56:39.154Z,8.40
2018-07-17T02:59:07.071Z,9.43
2018-07-17T03:01:35.245Z,9.60
2018-07-17T03:04:03.399Z,10.77
2018-07-17T03:06:31.560Z,9.37
2018-07-17T03:08:59.693Z,8.97
2018-07-17T03:11:27.850Z,8.87
2018-07-17T03:13:55.989Z,8.30
2018-07-17T03:16:24.171Z,7.80
2018-07-17T03:18:52.308Z,27.80
2018-07-17T03:21:20.440Z,8.70
2018-07-17T03:23:48.589Z,9.40
2018-07-17T03:26:16.737Z,10.30
2018-07-17T03:28:44.901Z,9.73
2018-07-17T03:31:13.122Z,8.20
2018-07-17T03:33:41.386Z,9.93
2018-07-17T03:36:09.559Z,8.70
2018-07-17T03:38:37.900Z,7.50
2018-07-17T03:41:06.120Z,7.60
2018-07-17T03:43:34.436Z,8.97
2018-07-17T03:46:02.609Z,8.03
2018-07-17T03:48:30.749Z,6.70
2018-07-17T03:50:58.903Z,6.93
2018-07-17T03:53:27.198Z,7.10
2018-07-17T03:55:55.430Z,6.50
2018-07-17T03:58:23.399Z,6.57
2018-07-17T04:00:51.737Z,7.00
2018-07-17T04:03:19.964Z,6.67
2018-07-17T04:05:48.103Z,7.17
2018-07-17T04:08:16.256Z,7.63
2018-07-17T04:10:44.424Z,7.57
2018-07-17T04:13:12.571Z,6.80
2018-07-17T04:15:40.689Z,6.90
2018-07-17T04:18:08.852Z,7.87
2018-07-17T04:20:36.987Z,7.10
2018-07-17T04:23:05.405Z,6.17
2018-07-17T04:25:33.541Z,6.23
2018-07-17T04:28:01.697Z,6.63
2018-07-17T04:30:29.609Z,6.67
2018-07-17T04:32:57.781Z,7.53
2018-07-17T04:38:00.549Z,6.90
2018-07-17T04:40:28.737Z,7.00
2018-07-17T04:42:56.928Z,6.87
2018-07-17T04:45:25.108Z,7.27
2018-07-17T04:47:53.333Z,7.20
2018-07-17T04:50:21.521Z,6.63
2018-07-17T04:52:49.714Z,7.03
2018-07-17T04:55:17.904Z,7.33
2018-07-17T04:57:46.090Z,6.67
2018-07-17T05:00:14.239Z,7.13
2018-07-17T05:02:42.398Z,6.63
2018-07-17T05:05:10.605Z,6.17
2018-07-17T05:07:38.768Z,6.87
2018-07-17T05:10:07.100Z,7.10
2018-07-17T05:12:35.332Z,6.60
2018-07-17T05:15:03.626Z,8.17
2018-07-17T05:17:31.852Z,7.63
2018-07-17T05:20:00.060Z,8.00
2018-07-17T05:22:28.301Z,8.07
2018-07-17T05:24:56.505Z,7.50
2018-07-17T05:27:24.683Z,7.13
2018-07-17T05:29:52.937Z,8.30
2018-07-17T05:32:21.558Z,8.43
2018-07-17T05:34:49.744Z,8.57
2018-07-17T05:37:17.965Z,8.03
2018-07-17T05:39:46.120Z,7.10
2018-07-17T05:42:14.149Z,7.73
2018-07-17T05:44:42.327Z,7.57
2018-07-17T05:47:10.630Z,7.30
2018-07-17T05:49:38.818Z,7.13
2018-07-17T05:52:06.997Z,7.63
2018-07-17T05:54:35.156Z,7.90
2018-07-17T05:57:03.082Z,7.50
2018-07-17T05:59:31.269Z,7.30
2018-07-17T06:01:59.477Z,7.00
2018-07-17T06:04:27.394Z,7.27
2018-07-17T06:06:55.557Z,7.57
2018-07-17T06:09:23.711Z,7.17
2018-07-17T06:11:51.913Z,7.10
2018-07-17T06:14:20.167Z,7.83
2018-07-17T06:16:48.353Z,6.63
2018-07-17T06:19:16.540Z,7.33
2018-07-17T06:21:44.720Z,6.50
2018-07-17T06:24:12.914Z,6.80
2018-07-17T06:26:41.129Z,6.63
2018-07-17T06:29:09.069Z,7.07
2018-07-17T06:31:37.207Z,7.10
2018-07-17T06:34:05.379Z,7.03
2018-07-17T06:36:33.560Z,7.40
2018-07-17T06:39:01.727Z,6.73
2018-07-17T06:41:29.848Z,7.23
2018-07-17T06:43:57.763Z,5.97
2018-07-17T06:46:25.905Z,5.30
2018-07-17T06:48:54.204Z,5.10
2018-07-17T06:51:22.464Z,5.57
2018-07-17T06:53:50.792Z,5.47
2018-07-17T06:56:19.070Z,5.80
2018-07-17T06:58:47.309Z,5.20
2018-07-17T07:01:15.572Z,5.63
2018-07-17T07:03:43.845Z,5.50
2018-07-17T07:06:12.131Z,4.70
2018-07-17T07:08:40.396Z,5.67
2018-07-17T07:11:08.775Z,5.00
2018-07-17T07:13:37.037Z,5.40
2018-07-17T07:16:05.470Z,5.33
2018-07-17T07:18:33.916Z,5.30
2018-07-17T07:21:02.130Z,4.83
2018-07-17T07:23:30.429Z,5.07
2018-07-17T07:25:58.778Z,5.07
2018-07-17T07:28:27.020Z,5.63
2018-07-17T07:30:55.339Z,5.23
2018-07-17T07:33:23.610Z,4.77
2018-07-17T07:35:51.832Z,5.50
2018-07-17T07:38:19.849Z,5.73
2018-07-17T07:40:48.117Z,5.03
2018-07-17T07:43:16.340Z,5.20
2018-07-17T07:45:44.706Z,5.13
2018-07-17T07:48:13.057Z,4.90
2018-07-17T07:50:41.505Z,5.30
2018-07-17T07:53:09.892Z,5.40
2018-07-17T07:55:38.233Z,5.40
2018-07-17T07:58:06.518Z,4.83
2018-07-17T08:00:34.862Z,5.50
2018-07-17T08:03:03.211Z,6.17
2018-07-17T08:05:31.657Z,5.20
2018-07-17T08:07:59.893Z,5.10
2018-07-17T08:10:28.253Z,5.60
2018-07-17T08:12:56.588Z,5.60
2018-07-17T08:15:24.899Z,5.13
2018-07-17T08:17:53.194Z,5.17
2018-07-17T08:20:21.469Z,5.27
2018-07-17T08:22:49.820Z,5.90
2018-07-17T08:25:18.096Z,5.53
2018-07-17T08:27:46.381Z,5.60
2018-07-17T08:30:14.685Z,4.83
2018-07-17T08:32:43.013Z,5.50
2018-07-17T08:35:11.193Z,5.57
2018-07-17T08:37:39.361Z,5.50
2018-07-17T08:40:07.571Z,5.63
2018-07-17T08:42:35.744Z,5.70
2018-07-17T08:45:03.977Z,5.73
2018-07-17T08:47:32.156Z,6.00
2018-07-17T08:50:00.328Z,5.70
2018-07-17T08:52:28.493Z,5.87
2018-07-17T08:54:56.672Z,6.00
2018-07-17T08:57:24.851Z,5.87
2018-07-17T08:59:53.034Z,5.93
2018-07-17T09:02:20.980Z,5.90
2018-07-17T09:04:49.157Z,5.60
2018-07-17T09:07:17.337Z,5.90
2018-07-17T09:09:45.572Z,5.27
2018-07-17T09:12:13.729Z,5.73
2018-07-17T09:14:41.918Z,5.80
2018-07-17T09:17:10.134Z,5.83
2018-07-17T09:19:38.452Z,5.50
2018-07-17T09:22:06.731Z,5.47
2018-07-17T09:24:34.884Z,6.30
2018-07-17T09:27:03.064Z,5.67
2018-07-17T09:29:31.257Z,7.90
2018-07-17T09:31:59.485Z,6.13
2018-07-17T09:34:27.696Z,5.60
2018-07-17T09:36:55.865Z,6.30
2018-07-17T09:39:24.093Z,5.40
2018-07-17T09:41:52.264Z,5.87
2018-07-17T09:44:20.512Z,5.47
2018-07-17T09:46:48.649Z,7.80
2018-07-17T09:49:16.856Z,5.90
2018-07-17T09:51:45.061Z,5.83
2018-07-17T09:54:13.296Z,5.77
2018-07-17T09:56:41.417Z,5.47
2018-07-17T09:59:09.592Z,6.20
2018-07-17T10:01:43.160Z,5.83
2018-07-17T10:04:11.322Z,6.40
2018-07-17T10:06:39.544Z,5.67
2018-07-17T10:09:07.797Z,6.10
2018-07-17T10:11:35.990Z,6.53
2018-07-17T10:14:04.161Z,6.10
2018-07-17T10:16:32.348Z,6.40
2018-07-17T10:19:00.610Z,6.00
2018-07-17T10:21:28.779Z,5.70
2018-07-17T10:23:57.013Z,5.40
2018-07-17T10:26:25.000Z,5.83
2018-07-17T10:28:53.117Z,5.50
2018-07-17T10:31:21.327Z,5.60
2018-07-17T10:33:49.497Z,5.23
2018-07-17T10:36:17.676Z,5.00
2018-07-17T10:38:45.891Z,5.30
2018-07-17T10:41:14.007Z,4.77
2018-07-17T10:43:41.961Z,4.90
2018-07-17T10:46:10.158Z,4.50
2018-07-17T10:48:38.338Z,4.60
2018-07-17T10:51:06.512Z,4.43
2018-07-17T10:53:34.686Z,4.40
2018-07-17T10:56:03.046Z,4.37
2018-07-17T10:58:31.240Z,4.27
2018-07-17T11:00:59.521Z,4.50
2018-07-17T11:03:27.636Z,4.90
2018-07-17T11:05:55.827Z,4.60
2018-07-17T11:08:24.037Z,5.30
2018-07-17T11:10:52.189Z,4.67
2018-07-17T11:13:20.361Z,4.80
2018-07-17T11:15:48.558Z,4.90
2018-07-17T11:18:16.731Z,5.00
2018-07-17T11:20:44.914Z,5.00
2018-07-17T11:23:13.079Z,4.70
2018-07-17T11:25:41.320Z,4.03
2018-07-17T11:28:09.576Z,4.03
2018-07-17T11:30:37.804Z,5.13
2018-07-17T11:33:06.632Z,4.40
2018-07-17T11:35:35.733Z,4.13
2018-07-17T11:38:05.643Z,3.70
2018-07-17T11:40:33.979Z,3.90
2018-07-17T11:43:02.885Z,3.40
2018-07-17T11:45:31.894Z,3.20
2018-07-17T11:48:00.252Z,3.13
2018-07-17T11:50:28.617Z,3.07
2018-07-17T11:52:56.641Z,2.77
2018-07-17T11:55:24.919Z,2.77
2018-07-17T11:57:53.254Z,2.57
2018-07-17T12:00:21.457Z,2.80
2018-07-17T12:02:49.694Z,2.60
2018-07-17T12:05:18.021Z,2.93
2018-07-17T12:07:46.309Z,2.60
2018-07-17T12:10:14.565Z,2.80
2018-07-17T12:12:42.857Z,2.70
2018-07-17T12:15:11.144Z,2.70
2018-07-17T12:17:39.526Z,2.50
2018-07-17T12:20:08.114Z,2.50
2018-07-17T12:22:36.211Z,2.77
2018-07-17T12:25:04.202Z,2.73
2018-07-17T12:27:32.458Z,2.63
2018-07-17T12:30:00.721Z,2.77
2018-07-17T12:32:28.751Z,2.80
2018-07-17T12:34:57.064Z,2.60
2018-07-17T12:37:25.311Z,3.40
2018-07-17T12:39:53.625Z,2.90
2018-07-17T12:42:21.757Z,2.77
2018-07-17T12:44:50.075Z,2.93
2018-07-17T12:47:18.186Z,2.63
2018-07-17T12:49:46.619Z,2.90
2018-07-17T12:52:15.121Z,2.83
2018-07-17T12:54:43.205Z,3.10
2018-07-17T12:57:11.589Z,3.43
2018-07-17T12:59:40.005Z,3.37
2018-07-17T13:02:08.567Z,2.90
2018-07-17T13:04:37.006Z,3.00
2018-07-17T13:07:05.294Z,3.10
2018-07-17T13:09:33.588Z,3.00
2018-07-17T13:12:01.882Z,2.97
2018-07-17T13:14:30.121Z,3.00
2018-07-17T13:16:58.109Z,3.00
2018-07-17T13:19:26.349Z,3.00
2018-07-17T13:21:54.693Z,3.00
2018-07-17T13:24:22.919Z,2.67
2018-07-17T13:26:51.078Z,3.27
2018-07-17T13:29:19.466Z,2.80
2018-07-17T13:31:47.633Z,3.00
2018-07-17T13:34:15.674Z,3.20
2018-07-17T13:36:44.048Z,2.83
2018-07-17T13:39:13.373Z,3.00
2018-07-17T13:41:41.773Z,3.07
2018-07-17T13:44:10.191Z,3.10
2018-07-17T13:46:38.594Z,3.00
2018-07-17T13:49:07.025Z,3.00
2018-07-17T13:51:35.386Z,3.20
2018-07-17T13:54:03.685Z,3.60
2018-07-17T13:56:31.921Z,3.00
2018-07-17T13:59:00.129Z,4.50
2018-07-17T14:01:28.407Z,2.70
2018-07-17T14:03:56.831Z,3.10
2018-07-17T14:06:25.254Z,2.57
2018-07-17T14:08:53.526Z,2.80
2018-07-17T14:11:21.922Z,2.80
2018-07-17T14:13:50.404Z,3.00
2018-07-17T14:16:18.508Z,3.10
2018-07-17T14:18:46.887Z,3.07
2018-07-17T14:21:15.210Z,3.27
2018-07-17T14:23:43.601Z,3.20
2018-07-17T14:26:11.618Z,3.20
2018-07-17T14:28:39.837Z,3.00
2018-07-17T14:31:08.018Z,3.20
2018-07-17T14:33:37.006Z,2.80
2018-07-17T14:36:05.686Z,2.67
2018-07-17T14:38:33.856Z,3.00
2018-07-17T14:41:02.048Z,2.50
2018-07-17T14:43:30.237Z,2.67
2018-07-17T14:45:58.450Z,2.53
2018-07-17T14:48:36.989Z,2.70
2018-07-17T14:51:07.677Z,2.57
2018-07-17T14:53:36.217Z,2.30
2018-07-17T14:56:04.365Z,2.53
2018-07-17T14:58:32.511Z,2.53
2018-07-17T15:01:00.724Z,2.57
2018-07-17T15:03:28.859Z,2.20
2018-07-17T15:05:57.038Z,2.37
2018-07-17T15:08:25.160Z,2.27
2018-07-17T15:10:53.082Z,2.20
2018-07-17T15:13:21.241Z,2.30
2018-07-17T15:15:49.474Z,2.53
2018-07-17T15:18:17.630Z,2.20
2018-07-17T15:20:45.784Z,2.17
2018-07-17T15:23:13.940Z,2.30
2018-07-17T15:25:42.125Z,2.90
2018-07-17T15:28:10.313Z,2.57
2018-07-17T15:30:38.503Z,2.37
2018-07-17T15:33:06.724Z,2.47
2018-07-17T15:35:35.050Z,2.63
2018-07-17T15:38:03.362Z,2.33
2018-07-17T15:40:31.408Z,2.40
2018-07-17T15:42:59.686Z,2.10
2018-07-17T15:45:28.026Z,2.30
2018-07-17T15:47:56.214Z,1.90
2018-07-17T15:50:24.452Z,2.03
2018-07-17T15:52:52.808Z,2.13
2018-07-17T15:55:21.082Z,2.30
2018-07-17T15:57:49.313Z,2.20
2018-07-17T16:00:17.589Z,2.23
2018-07-17T16:02:45.882Z,2.47
2018-07-17T16:05:14.205Z,2.57
2018-07-17T16:07:42.499Z,2.70
2018-07-17T16:10:10.881Z,2.80
2018-07-17T16:12:39.225Z,2.93
2018-07-17T16:15:07.475Z,2.83
2018-07-17T16:17:36.100Z,3.10
2018-07-17T16:20:04.581Z,2.80
2018-07-17T16:22:32.874Z,3.00
2018-07-17T16:25:01.108Z,2.73
2018-07-17T16:27:29.390Z,2.47
2018-07-17T16:29:57.689Z,2.83
2018-07-17T16:32:26.100Z,2.87
2018-07-17T16:34:54.312Z,3.67
2018-07-17T16:37:22.597Z,2.97
2018-07-17T16:39:50.953Z,2.87
2018-07-17T16:42:19.394Z,2.53
2018-07-17T16:44:47.578Z,2.70
2018-07-17T16:47:15.901Z,3.40
2018-07-17T16:49:44.313Z,2.50
2018-07-17T16:52:12.297Z,2.13
2018-07-17T16:54:40.630Z,2.90
2018-07-17T16:57:08.880Z,2.97
2018-07-17T16:59:37.174Z,2.90
2018-07-17T17:02:05.571Z,4.03
2018-07-17T17:04:33.518Z,2.73
2018-07-17T17:07:01.866Z,2.93
2018-07-17T17:09:30.140Z,3.13
2018-07-17T17:11:58.329Z,2.90
2018-07-17T17:14:26.590Z,3.03
2018-07-17T17:16:54.846Z,3.00
2018-07-17T17:19:23.068Z,6.63
2018-07-17T17:21:51.338Z,3.47
2018-07-17T17:24:19.675Z,2.50
2018-07-17T17:26:47.813Z,2.90
2018-07-17T17:29:16.108Z,3.57
2018-07-17T17:31:44.383Z,13.77
2018-07-17T17:34:12.378Z,21.73
2018-07-17T17:36:40.719Z,2.80
2018-07-17T17:39:10.056Z,3.10
2018-07-17T17:41:38.470Z,4.67
2018-07-17T17:44:07.638Z,3.27
2018-07-17T17:46:36.033Z,3.60
2018-07-17T17:49:04.233Z,8.83
2018-07-17T17:51:32.439Z,3.37
2018-07-17T17:54:00.589Z,2.70
2018-07-17T17:56:28.848Z,2.50
2018-07-17T17:58:57.125Z,3.60
2018-07-17T18:01:25.395Z,3.67
2018-07-17T18:03:53.708Z,3.10
2018-07-17T18:06:21.955Z,3.47
2018-07-17T18:08:50.342Z,3.03
2018-07-17T18:11:18.723Z,2.70
2018-07-17T18:13:46.996Z,4.70
2018-07-17T18:16:15.265Z,3.10
2018-07-17T18:18:43.537Z,2.90
2018-07-17T18:21:11.797Z,2.87
2018-07-17T18:23:40.086Z,3.13
2018-07-17T18:26:08.334Z,5.23
2018-07-17T18:28:36.640Z,6.63
2018-07-17T18:31:04.942Z,7.03
2018-07-17T18:33:33.214Z,4.27
2018-07-17T18:36:01.471Z,3.73
2018-07-17T18:38:29.761Z,12.60
2018-07-17T18:40:58.089Z,3.70
2018-07-17T18:43:26.381Z,3.80
2018-07-17T18:45:54.662Z,7.17
2018-07-17T18:48:22.964Z,4.77
2018-07-17T18:50:51.236Z,8.70
2018-07-17T18:53:19.529Z,4.93
2018-07-17T18:55:47.829Z,4.07
2018-07-17T18:58:15.805Z,8.07
2018-07-17T19:00:43.892Z,4.60
2018-07-17T19:03:12.173Z,6.40
2018-07-17T19:05:40.498Z,5.50
2018-07-17T19:08:08.767Z,7.73
2018-07-17T19:10:37.046Z,7.47
2018-07-17T19:13:05.284Z,6.40
2018-07-17T19:15:33.629Z,13.23
2018-07-17T19:18:01.850Z,28.57
2018-07-17T19:20:30.070Z,6.93
2018-07-17T19:22:58.319Z,4.50
2018-07-17T19:25:26.697Z,8.73
2018-07-17T19:27:55.039Z,4.20
2018-07-17T19:30:23.418Z,4.93
2018-07-17T19:32:51.673Z,11.50
2018-07-17T19:35:19.735Z,11.47
2018-07-17T19:37:48.005Z,13.10
2018-07-17T19:40:16.241Z,10.17
2018-07-17T19:42:44.495Z,10.53
2018-07-17T19:45:12.859Z,8.20
2018-07-17T19:47:41.135Z,7.87
2018-07-17T19:50:09.164Z,8.30
2018-07-17T19:52:37.459Z,8.07
2018-07-17T19:55:06.015Z,7.63
2018-07-17T19:57:34.308Z,7.57
2018-07-17T20:00:08.972Z,9.60
2018-07-17T20:02:37.414Z,9.60
2018-07-17T20:05:05.732Z,8.90
2018-07-17T20:07:34.101Z,5.63
2018-07-17T20:10:02.128Z,5.33
2018-07-17T20:12:30.390Z,6.13
2018-07-17T20:14:58.690Z,5.80
2018-07-17T20:17:27.005Z,4.77
2018-07-17T20:19:54.990Z,5.47
2018-07-17T20:22:23.257Z,4.90
2018-07-17T20:24:51.531Z,5.50
2018-07-17T20:27:19.802Z,7.30
2018-07-17T20:29:48.093Z,5.13
2018-07-17T20:32:16.419Z,5.03
2018-07-17T20:34:44.424Z,5.87
2018-07-17T20:37:12.746Z,5.50
2018-07-17T20:39:41.043Z,6.00
2018-07-17T20:42:09.381Z,10.37
2018-07-17T20:44:37.689Z,6.60
2018-07-17T20:47:05.962Z,6.13
2018-07-17T20:49:34.264Z,5.40
2018-07-17T20:52:02.513Z,6.30
2018-07-17T20:54:30.757Z,7.27
2018-07-17T20:56:59.038Z,7.27
2018-07-17T20:59:27.372Z,5.50
2018-07-17T21:01:55.622Z,5.13
2018-07-17T21:04:23.881Z,5.10
2018-07-17T21:06:52.225Z,5.07
2018-07-17T21:09:20.529Z,4.87
2018-07-17T21:11:48.961Z,5.10
2018-07-17T21:14:17.257Z,6.27
2018-07-17T21:16:45.570Z,5.90
2018-07-17T21:19:13.876Z,5.20
2018-07-17T21:21:42.180Z,4.57
2018-07-17T21:24:10.442Z,6.10
2018-07-17T21:26:38.812Z,4.60
2018-07-17T21:29:07.116Z,4.77
2018-07-17T21:31:35.121Z,5.37
2018-07-17T21:34:03.450Z,6.33
2018-07-17T21:36:31.782Z,4.43
2018-07-17T21:39:00.070Z,5.03
2018-07-17T21:41:28.372Z,5.17
2018-07-17T21:43:56.710Z,5.20
2018-07-17T21:46:24.956Z,5.10
2018-07-17T21:48:52.906Z,5.03
2018-07-17T21:51:21.073Z,4.60
2018-07-17T21:53:49.233Z,4.97
2018-07-17T21:56:17.561Z,5.33
2018-07-17T21:58:45.745Z,5.53
2018-07-17T22:01:13.899Z,5.10
2018-07-17T22:03:42.040Z,7.07
2018-07-17T22:06:10.222Z,4.97
2018-07-17T22:08:38.410Z,5.60
2018-07-17T22:11:06.912Z,5.60
2018-07-17T22:13:35.116Z,5.37
2018-07-17T22:16:03.264Z,5.30
2018-07-17T22:18:31.431Z,5.60
2018-07-17T22:20:59.606Z,5.77
2018-07-17T22:23:27.810Z,4.73
2018-07-17T22:25:55.979Z,5.13
2018-07-17T22:28:24.171Z,6.17
2018-07-17T22:30:52.332Z,5.77
2018-07-17T22:33:20.493Z,5.73
2018-07-17T22:35:48.671Z,6.00
2018-07-17T22:38:16.840Z,6.47
2018-07-17T22:40:44.994Z,5.37
2018-07-17T22:43:12.915Z,5.17
2018-07-17T22:45:41.079Z,5.87
2018-07-17T22:48:09.276Z,7.87
2018-07-17T22:50:37.432Z,7.40
2018-07-17T22:53:05.661Z,6.70
2018-07-17T22:55:33.841Z,6.50
2018-07-17T22:58:02.003Z,5.77
2018-07-17T23:00:29.957Z,5.67
2018-07-17T23:02:58.140Z,6.07
2018-07-17T23:05:32.761Z,6.37
2018-07-17T23:08:00.929Z,5.80
2018-07-17T23:10:29.084Z,6.20
2018-07-17T23:12:57.285Z,5.90
2018-07-17T23:15:25.507Z,5.17
2018-07-17T23:17:53.710Z,5.67
2018-07-17T23:20:22.764Z,5.97
2018-07-17T23:22:56.568Z,7.40
2018-07-17T23:25:26.102Z,6.23
2018-07-17T23:27:55.197Z,6.60
2018-07-17T23:30:23.477Z,6.23
2018-07-17T23:32:52.331Z,6.40
2018-07-17T23:35:21.680Z,6.03
2018-07-17T23:37:50.557Z,6.20
2018-07-17T23:40:19.072Z,6.07
2018-07-17T23:42:47.329Z,5.53
2018-07-17T23:45:16.381Z,5.60
2018-07-17T23:47:45.277Z,5.47
2018-07-17T23:50:13.562Z,5.97
2018-07-17T23:52:41.848Z,5.53
2018-07-17T23:55:10.105Z,6.73
2018-07-17T23:57:38.439Z,5.70
